Time;durP1;ratioP1;P1;durP2;ratioP2;P2;SDS_P1;SDS_P2;PMS_P1;PMS_P2;Temp;Humidity;BMP_temperature;BMP_pressure;BME280_temperature;BME280_humidity;BME280_pressure;Samples;Min_cycle;Max_cycle;Signal;HPM_P1;HPM_P2
2021/04/24 00:02:09;;;;;;;19.05;8.18;;;;;;;9.37;55.32;101017.59;5040374;27;98568;-69
2021/04/24 00:04:35;;;;;;;19.48;8.35;;;;;;;9.36;54.74;101014.97;5023728;27;97893;-69
2021/04/24 00:07:02;;;;;;;21.67;7.78;;;;;;;9.30;55.08;101008.94;5056805;27;97268;-69
2021/04/24 00:09:28;;;;;;;15.13;7.95;;;;;;;9.29;55.18;101006.38;5075539;27;97966;-69
2021/04/24 00:11:53;;;;;;;17.92;8.52;;;;;;;9.29;54.92;101009.84;5039448;27;97336;-69
2021/04/24 00:14:19;;;;;;;14.55;7.40;;;;;;;9.32;53.96;101003.69;5040443;27;97138;-69
2021/04/24 00:16:44;;;;;;;14.85;7.10;;;;;;;9.30;53.81;101003.72;5022234;27;96913;-69
2021/04/24 00:19:10;;;;;;;16.48;6.72;;;;;;;9.30;52.92;101008.09;5039814;27;97623;-69
2021/04/24 00:21:36;;;;;;;13.20;6.47;;;;;;;9.29;53.07;101011.63;5022620;27;100707;-69
2021/04/24 00:24:01;;;;;;;13.68;6.88;;;;;;;9.31;52.57;101015.06;5039452;27;97104;-70
2021/04/24 00:26:27;;;;;;;17.77;6.35;;;;;;;9.28;52.09;101017.75;5040492;27;97281;-69
2021/04/24 00:28:52;;;;;;;16.00;5.72;;;;;;;9.26;51.57;101015.16;5038751;27;101362;-69
2021/04/24 00:31:18;;;;;;;13.82;5.85;;;;;;;9.28;51.76;101015.13;5056814;27;97817;-69
2021/04/24 00:33:44;;;;;;;13.43;5.28;;;;;;;9.26;51.13;101015.16;5056613;27;96805;-71
2021/04/24 00:36:09;;;;;;;16.15;7.05;;;;;;;9.25;50.61;101018.66;5039976;27;96920;-69
2021/04/24 00:38:36;;;;;;;14.38;4.80;;;;;;;9.24;49.38;101005.59;5038818;27;101553;-69
2021/04/24 00:41:01;;;;;;;8.45;4.20;;;;;;;9.23;49.31;101012.59;5039056;27;98000;-70
2021/04/24 00:43:27;;;;;;;9.80;4.60;;;;;;;9.22;48.78;101004.72;5039654;27;96677;-69
2021/04/24 00:45:53;;;;;;;12.15;4.30;;;;;;;9.20;48.70;101006.53;5039055;27;96923;-69
2021/04/24 00:48:18;;;;;;;10.73;4.57;;;;;;;9.19;48.22;101010.03;5038389;27;101270;-69
2021/04/24 00:50:44;;;;;;;11.80;4.80;;;;;;;9.17;48.09;101007.44;5038207;27;101095;-71
2021/04/24 00:53:12;;;;;;;13.13;4.97;;;;;;;9.14;47.87;101010.13;5074333;27;97166;-69
2021/04/24 00:55:38;;;;;;;8.48;4.55;;;;;;;9.12;48.49;101006.66;5060272;27;97015;-69
2021/04/24 00:58:05;;;;;;;23.38;6.30;;;;;;;9.15;47.44;101014.47;5058151;27;97404;-69
2021/04/24 01:00:31;;;;;;;14.50;5.82;;;;;;;9.15;48.14;101008.38;5042477;27;101352;-69
2021/04/24 01:02:57;;;;;;;20.70;5.38;;;;;;;9.16;47.35;101010.97;5058781;27;97234;-69
2021/04/24 01:05:32;;;;;;;12.20;5.28;;;;;;;9.15;46.90;101008.38;5059766;27;97248;-70
2021/04/24 01:07:58;;;;;;;11.60;4.93;;;;;;;9.11;47.26;101011.94;5075154;27;101338;-68
2021/04/24 01:10:24;;;;;;;10.35;4.45;;;;;;;9.11;47.01;101012.81;5076794;27;97885;-70
2021/04/24 01:12:50;;;;;;;13.73;5.35;;;;;;;9.07;47.49;101006.75;5075055;27;96777;-68
2021/04/24 01:15:18;;;;;;;13.07;5.05;;;;;;;9.12;47.15;101004.03;5095270;27;96873;-69
2021/04/24 01:17:44;;;;;;;14.60;4.72;;;;;;;9.14;47.75;101004.88;5040661;27;101480;-72
2021/04/24 01:20:11;;;;;;;18.48;5.13;;;;;;;9.07;47.21;100996.28;5059121;27;98445;-68
2021/04/24 01:22:37;;;;;;;14.13;5.00;;;;;;;9.10;47.48;100994.47;5059368;27;97141;-68
2021/04/24 01:25:07;;;;;;;14.43;5.60;;;;;;;9.03;47.88;100997.19;5059022;27;97377;-69
2021/04/24 01:27:33;;;;;;;10.20;5.00;;;;;;;9.02;47.57;100992.00;5062657;27;97427;-68
2021/04/24 01:29:59;;;;;;;14.88;6.22;;;;;;;9.00;47.82;100993.78;5061625;27;101241;-69
2021/04/24 01:32:25;;;;;;;10.95;5.07;;;;;;;8.95;47.95;100993.84;5080048;27;96917;-69
2021/04/24 01:34:50;;;;;;;14.65;6.72;;;;;;;8.97;48.02;100996.44;5062246;27;96808;-69
2021/04/24 01:37:16;;;;;;;13.27;6.20;;;;;;;8.96;48.85;100998.22;5079241;27;98021;-69
2021/04/24 01:39:41;;;;;;;17.13;6.10;;;;;;;8.91;49.03;100992.19;5052881;27;101282;-72
2021/04/24 01:42:07;;;;;;;18.17;6.07;;;;;;;8.89;50.08;100987.84;5058819;27;96781;-69
2021/04/24 01:44:32;;;;;;;15.05;6.80;;;;;;;8.89;50.59;100987.84;5078025;27;96806;-69
2021/04/24 01:46:58;;;;;;;16.20;7.90;;;;;;;8.84;51.42;100985.28;5040920;27;97486;-68
2021/04/24 01:49:23;;;;;;;15.40;6.93;;;;;;;8.84;51.59;100980.06;5058629;27;100869;-69
2021/04/24 01:51:49;;;;;;;19.27;7.82;;;;;;;8.76;52.00;100974.97;5058353;27;98009;-69
2021/04/24 01:54:15;;;;;;;21.35;10.40;;;;;;;8.72;53.18;100977.66;5042480;27;96864;-69
2021/04/24 01:56:43;;;;;;;18.88;8.75;;;;;;;8.75;53.70;100977.59;5054303;27;101819;-69
2021/04/24 01:59:09;;;;;;;18.48;9.77;;;;;;;8.70;53.52;100975.06;5058116;27;101367;-70
2021/04/24 02:01:34;;;;;;;17.58;9.05;;;;;;;8.66;54.48;100980.38;5011828;27;97815;-69
2021/04/24 02:04:00;;;;;;;21.35;9.77;;;;;;;8.67;55.19;100974.22;5044589;27;97451;-69
2021/04/24 02:06:25;;;;;;;18.60;9.55;;;;;;;8.68;55.67;100968.13;5040847;27;101481;-68
2021/04/24 02:08:51;;;;;;;19.55;9.73;;;;;;;8.67;55.98;100969.88;5040543;27;101156;-69
2021/04/24 02:11:17;;;;;;;18.77;9.07;;;;;;;8.61;56.20;100963.00;5041497;27;97077;-69
2021/04/24 02:13:43;;;;;;;22.30;9.73;;;;;;;8.60;56.54;100961.25;5058757;27;97113;-72
2021/04/24 02:16:10;;;;;;;15.98;9.38;;;;;;;8.59;56.61;100962.16;5040300;27;100523;-69
2021/04/24 02:18:36;;;;;;;23.50;10.45;;;;;;;8.57;56.70;100958.69;5058094;27;97969;-69
2021/04/24 02:21:02;;;;;;;18.83;9.43;;;;;;;8.56;56.38;100967.44;5041273;27;96716;-69
2021/04/24 02:23:35;;;;;;;15.18;8.52;;;;;;;8.49;57.27;100972.75;5059223;27;96764;-69
2021/04/24 02:26:03;;;;;;;22.17;9.93;;;;;;;8.52;57.04;100976.22;5057063;27;101877;-69
2021/04/24 02:28:28;;;;;;;21.88;9.57;;;;;;;8.50;56.81;100972.75;5058411;27;97882;-68
2021/04/24 02:30:54;;;;;;;23.13;9.32;;;;;;;8.49;57.43;100968.38;5041009;27;97069;-69
2021/04/24 02:33:20;;;;;;;16.67;9.30;;;;;;;8.50;57.01;100972.75;5058699;27;97031;-68
2021/04/24 02:35:50;;;;;;;21.92;9.43;;;;;;;8.50;57.33;100966.66;5025052;27;101206;-72
2021/04/24 02:38:22;;;;;;;21.05;9.73;;;;;;;8.47;57.37;100959.72;5044273;27;97542;-69
2021/04/24 02:40:49;;;;;;;18.23;9.50;;;;;;;8.46;57.62;100959.72;5064343;27;98402;-69
2021/04/24 02:43:15;;;;;;;16.80;9.30;;;;;;;8.32;57.99;100959.91;5078895;27;96929;-69
2021/04/24 02:45:41;;;;;;;21.38;10.45;;;;;;;8.32;57.85;100960.78;5044287;27;101254;-69
2021/04/24 02:48:07;;;;;;;21.00;9.93;;;;;;;8.22;57.84;100964.41;5056850;27;101407;-69
2021/04/24 02:50:33;;;;;;;17.25;10.00;;;;;;;8.09;58.64;100962.88;5058896;27;96937;-69
2021/04/24 02:52:58;;;;;;;19.05;9.40;;;;;;;8.22;58.06;100955.69;5056285;27;97106;-69
2021/04/24 02:55:24;;;;;;;22.23;9.93;;;;;;;8.22;57.84;100960.94;5078362;27;97876;-69
2021/04/24 02:57:50;;;;;;;15.95;8.98;;;;;;;8.12;58.14;100961.06;5042960;27;101282;-69
2021/04/24 03:00:18;;;;;;;19.73;9.55;;;;;;;8.11;58.01;100948.84;5041376;27;96970;-69
2021/04/24 03:02:44;;;;;;;21.85;8.60;;;;;;;8.08;58.09;100955.88;5023580;27;97074;-72
2021/04/24 03:05:16;;;;;;;18.90;9.18;;;;;;;8.13;57.77;100947.09;5023596;27;101221;-68
2021/04/24 03:07:42;;;;;;;;;;;;;;;8.11;58.11;100948.84;5023092;27;100842;-69
2021/04/24 03:10:08;;;;;;;17.95;9.30;;;;;;;8.15;57.82;100954.94;5068523;27;96857;-68
2021/04/24 03:12:34;;;;;;;20.40;9.13;;;;;;;8.14;57.73;100943.63;5061193;27;96941;-69
2021/04/24 03:14:59;;;;;;;18.80;8.73;;;;;;;8.17;57.40;100950.53;5060084;27;100970;-69
2021/04/24 03:17:25;;;;;;;18.40;9.38;;;;;;;8.13;57.68;100943.63;5077517;27;97936;-68
2021/04/24 03:19:51;;;;;;;17.08;8.90;;;;;;;8.13;57.60;100956.69;5059846;27;96733;-69
2021/04/24 03:22:16;;;;;;;16.88;8.60;;;;;;;8.03;57.79;100955.06;5057584;27;97157;-68
2021/04/24 03:24:42;;;;;;;16.17;8.93;;;;;;;7.98;57.96;100956.91;5040351;27;101050;-69
2021/04/24 03:27:08;;;;;;;21.42;8.82;;;;;;;7.98;58.22;100956.91;5039546;27;98329;-69
2021/04/24 03:29:34;;;;;;;18.48;8.05;;;;;;;8.00;57.57;100960.34;5040828;27;97057;-69
2021/04/24 03:32:00;;;;;;;16.00;7.97;;;;;;;8.00;57.00;100952.50;5057077;27;96957;-69
2021/04/24 03:34:26;;;;;;;17.98;8.40;;;;;;;7.98;57.65;100962.13;5057443;27;98076;-69
2021/04/24 03:36:52;;;;;;;19.23;8.57;;;;;;;7.97;57.54;100965.63;5056312;27;98089;-69
2021/04/24 03:39:17;;;;;;;14.95;8.32;;;;;;;7.98;57.39;100963.00;5029050;27;96753;-69
2021/04/24 03:41:43;;;;;;;17.70;7.50;;;;;;;8.02;57.33;100962.06;5020116;27;97497;-70
2021/04/24 03:44:08;;;;;;;19.65;8.00;;;;;;;8.06;57.23;100970.75;5056411;27;97769;-69
2021/04/24 03:46:34;;;;;;;17.85;9.05;;;;;;;8.08;57.32;100968.97;5022084;27;101066;-69
2021/04/24 03:48:59;;;;;;;20.52;7.90;;;;;;;8.09;57.12;100971.56;5019127;27;97175;-69
2021/04/24 03:51:25;;;;;;;18.25;8.02;;;;;;;8.08;56.51;100969.81;5020515;27;96981;-68
2021/04/24 03:53:50;;;;;;;15.45;8.20;;;;;;;7.99;57.10;100967.34;5029302;27;97161;-68
2021/04/24 03:56:16;;;;;;;21.20;8.10;;;;;;;8.05;57.02;100971.63;5022574;27;98007;-68
2021/04/24 03:58:41;;;;;;;18.83;7.57;;;;;;;8.03;56.83;100970.75;5030522;27;97187;-68
2021/04/24 04:01:07;;;;;;;14.93;6.65;;;;;;;8.04;56.46;100964.66;5019251;27;97276;-69
2021/04/24 04:03:33;;;;;;;13.35;7.30;;;;;;;8.06;56.78;100970.75;5039578;27;101592;-68
2021/04/24 04:05:58;;;;;;;15.20;7.57;;;;;;;8.11;56.59;100964.53;5055455;27;97400;-68
2021/04/24 04:08:24;;;;;;;16.65;7.88;;;;;;;8.08;56.44;100961.13;5039200;27;96743;-68
2021/04/24 04:10:49;;;;;;;19.45;8.10;;;;;;;8.06;56.44;100958.53;5038912;27;97342;-69
2021/04/24 04:13:16;;;;;;;20.52;7.72;;;;;;;8.11;56.37;100961.06;5039051;27;101201;-69
2021/04/24 04:15:42;;;;;;;21.23;9.18;;;;;;;8.10;56.24;100968.06;5038677;27;101231;-69
2021/04/24 04:18:09;;;;;;;15.60;7.10;;;;;;;8.08;56.06;100955.88;5056290;27;96649;-69
2021/04/24 04:20:41;;;;;;;18.27;8.18;;;;;;;8.14;56.21;100967.16;5056775;27;96903;-67
2021/04/24 04:23:08;;;;;;;15.55;7.47;;;;;;;8.16;56.13;100961.88;5055764;27;98044;-67
2021/04/24 04:25:33;;;;;;;19.42;7.93;;;;;;;8.25;56.28;100959.13;5039781;27;97954;-67
2021/04/24 04:27:59;;;;;;;14.77;7.07;;;;;;;8.33;56.08;100964.25;5039194;27;96777;-68
2021/04/24 04:30:25;;;;;;;23.17;7.90;;;;;;;8.39;55.87;100959.81;5056928;27;97324;-68
2021/04/24 04:32:51;;;;;;;16.13;6.80;;;;;;;8.46;55.84;100957.97;5037497;27;101340;-68
2021/04/24 04:35:17;;;;;;;21.45;7.20;;;;;;;8.49;55.36;100954.44;5053088;27;97875;-68
2021/04/24 04:37:43;;;;;;;16.70;7.00;;;;;;;8.58;55.36;100960.44;5019499;27;97278;-68
2021/04/24 04:40:11;;;;;;;15.25;7.60;;;;;;;8.76;54.69;100951.41;5018747;27;97593;-69
2021/04/24 04:42:36;;;;;;;17.25;8.00;;;;;;;8.86;55.26;100949.50;5019126;27;97983;-68
2021/04/24 04:45:04;;;;;;;26.83;8.27;;;;;;;9.01;54.88;100949.22;5018096;27;101141;-70
2021/04/24 04:47:29;;;;;;;16.27;7.90;;;;;;;9.07;54.59;100962.22;5019083;27;96779;-68
2021/04/24 04:49:55;;;;;;;19.80;8.95;;;;;;;9.29;54.14;100962.69;5049454;27;96837;-69
2021/04/24 04:52:20;;;;;;;19.15;8.38;;;;;;;9.60;53.44;100955.97;5026885;27;98095;-69
2021/04/24 04:54:46;;;;;;;17.05;8.52;;;;;;;10.24;52.14;100951.13;5036689;27;98417;-72
2021/04/24 04:57:11;;;;;;;22.77;8.85;;;;;;;10.96;50.40;100952.91;5027233;27;97090;-69
2021/04/24 04:59:37;;;;;;;18.20;7.55;;;;;;;11.41;49.79;100957.03;5016752;27;96908;-70
2021/04/24 05:02:03;;;;;;;18.85;7.60;;;;;;;12.06;47.89;100953.44;5012324;27;97632;-67
2021/04/24 05:04:28;;;;;;;18.05;7.35;;;;;;;12.50;47.46;100945.91;5057102;27;97456;-67
2021/04/24 05:06:54;;;;;;;20.33;8.05;;;;;;;12.55;47.70;100947.50;5041670;27;96784;-67
2021/04/24 05:09:22;;;;;;;16.10;7.10;;;;;;;12.97;46.76;100954.88;5025905;27;97160;-67
2021/04/24 05:11:50;;;;;;;18.80;8.75;;;;;;;13.42;45.73;100956.03;5058942;27;98200;-69
2021/04/24 05:14:16;;;;;;;18.02;8.05;;;;;;;13.05;46.02;100958.13;5041975;27;100875;-69
2021/04/24 05:16:42;;;;;;;20.42;7.35;;;;;;;13.58;44.55;100958.06;5041406;27;97219;-69
2021/04/24 05:19:08;;;;;;;13.93;6.97;;;;;;;14.63;42.44;100949.66;5059784;27;96932;-69
2021/04/24 05:21:34;;;;;;;14.13;7.45;;;;;;;15.34;40.87;100952.78;5024269;27;101430;-72
2021/04/24 05:24:01;;;;;;;17.17;7.72;;;;;;;16.05;40.68;100957.56;5059336;27;98524;-69
2021/04/24 05:26:26;;;;;;;14.35;6.68;;;;;;;15.49;40.51;100956.53;5042185;27;97378;-68
2021/04/24 05:28:52;;;;;;;13.15;6.38;;;;;;;16.07;39.82;100948.63;5041736;27;96972;-69
2021/04/24 05:31:17;;;;;;;17.67;7.88;;;;;;;16.58;38.58;100942.69;5042070;27;100969;-68
2021/04/24 05:33:43;;;;;;;17.10;8.10;;;;;;;15.86;39.61;100951.44;5057963;27;101477;-69
2021/04/24 05:36:14;;;;;;;20.40;8.55;;;;;;;16.09;39.15;100948.56;5042098;27;97249;-68
2021/04/24 05:38:39;;;;;;;19.98;7.95;;;;;;;15.37;39.55;100944.72;5048753;27;97165;-68
2021/04/24 05:41:06;;;;;;;17.63;8.57;;;;;;;14.98;41.00;100943.78;5079559;27;97828;-69
2021/04/24 05:43:32;;;;;;;20.52;8.60;;;;;;;14.56;41.20;100942.88;5062047;27;99834;-72
2021/04/24 05:45:58;;;;;;;20.88;9.27;;;;;;;16.63;37.78;100945.97;5061811;27;97063;-68
2021/04/24 05:48:23;;;;;;;22.35;8.30;;;;;;;17.97;36.00;100953.22;5062441;27;96922;-67
2021/04/24 05:50:49;;;;;;;21.35;8.50;;;;;;;19.07;35.54;100943.41;5061185;27;100920;-67
2021/04/24 05:53:15;;;;;;;22.27;8.48;;;;;;;19.79;34.37;100939.03;5041455;27;101024;-68
2021/04/24 05:55:41;;;;;;;17.48;8.18;;;;;;;20.05;33.81;100945.38;5058151;27;96649;-68
2021/04/24 05:58:06;;;;;;;20.98;8.93;;;;;;;18.60;35.67;100944.38;5041943;27;97429;-67
2021/04/24 06:00:32;;;;;;;16.70;8.10;;;;;;;17.68;35.93;100942.34;5041773;27;98213;-71
2021/04/24 06:02:57;;;;;;;19.17;8.52;;;;;;;17.36;36.84;100952.00;5040950;27;101722;-67
2021/04/24 06:05:23;;;;;;;19.02;8.48;;;;;;;17.79;36.41;100955.06;5042274;27;97163;-67
2021/04/24 06:07:49;;;;;;;18.52;7.55;;;;;;;19.92;34.41;100955.09;5040529;27;97317;-67
2021/04/24 06:10:16;;;;;;;17.33;7.28;;;;;;;19.66;34.26;100954.91;5041106;27;100738;-67
2021/04/24 06:12:46;;;;;;;17.67;8.15;;;;;;;18.97;35.04;100948.44;5056849;27;97424;-68
2021/04/24 06:15:13;;;;;;;18.73;8.15;;;;;;;18.60;34.94;100950.53;5025090;27;96847;-68
2021/04/24 06:17:39;;;;;;;13.52;7.55;;;;;;;18.04;35.49;100950.16;5040167;27;97299;-69
2021/04/24 06:20:06;;;;;;;17.67;7.30;;;;;;;17.70;35.90;100945.78;5040922;27;101839;-69
2021/04/24 06:22:32;;;;;;;16.73;7.15;;;;;;;18.01;35.75;100949.47;5043937;27;97589;-72
2021/04/24 06:24:58;;;;;;;13.73;7.30;;;;;;;20.44;32.93;100954.41;5068591;27;96757;-69
2021/04/24 06:27:23;;;;;;;12.35;6.55;;;;;;;20.60;32.20;100943.66;5068358;27;97187;-67
2021/04/24 06:29:49;;;;;;;11.20;6.95;;;;;;;20.16;32.36;100947.34;5084946;27;97425;-67
2021/04/24 06:32:14;;;;;;;13.93;6.47;;;;;;;19.30;32.88;100953.53;5066316;27;98086;-67
2021/04/24 06:34:40;;;;;;;11.23;5.72;;;;;;;18.88;33.06;100948.94;5051151;27;98139;-67
2021/04/24 06:37:06;;;;;;;14.68;6.45;;;;;;;18.44;33.06;100955.00;5053273;27;96932;-67
2021/04/24 06:39:33;;;;;;;11.13;5.22;;;;;;;18.12;33.73;100949.69;5051398;27;101504;-68
2021/04/24 06:41:59;;;;;;;11.13;5.63;;;;;;;17.96;33.60;100946.19;5051123;27;101089;-67
2021/04/24 06:44:24;;;;;;;12.35;5.70;;;;;;;17.76;33.61;100950.75;5050651;27;97139;-68
2021/04/24 06:46:50;;;;;;;12.20;5.60;;;;;;;17.79;34.11;100955.06;5065078;27;97256;-68
2021/04/24 06:49:16;;;;;;;10.20;4.57;;;;;;;18.70;32.75;100948.19;5067515;27;98473;-68
2021/04/24 06:51:41;;;;;;;9.95;4.55;;;;;;;17.96;33.11;100952.34;5051593;27;101242;-68
2021/04/24 06:54:07;;;;;;;10.25;4.80;;;;;;;18.03;33.18;100942.25;5049244;27;97430;-67
2021/04/24 06:56:32;;;;;;;11.27;4.53;;;;;;;17.59;34.04;100949.00;5069667;27;97409;-68
2021/04/24 06:58:58;;;;;;;10.55;4.93;;;;;;;17.67;34.04;100939.78;5067498;27;98797;-67
2021/04/24 07:01:24;;;;;;;10.60;4.63;;;;;;;17.78;33.63;100946.25;5069718;27;98042;-69
2021/04/24 07:03:49;;;;;;;13.98;5.43;;;;;;;18.44;33.60;100947.03;5056069;27;97105;-67
2021/04/24 07:06:15;;;;;;;8.32;4.45;;;;;;;21.19;30.22;100930.75;5047743;27;97181;-67
2021/04/24 07:08:40;;;;;;;11.25;4.43;;;;;;;20.10;30.84;100944.16;5087538;27;97459;-69
2021/04/24 07:11:06;;;;;;;17.73;4.97;;;;;;;21.81;28.88;100940.69;5067302;27;98214;-67
2021/04/24 07:13:32;;;;;;;12.02;4.90;;;;;;;22.86;28.07;100923.19;5050339;27;97210;-69
2021/04/24 07:16:02;;;;;;;12.23;4.85;;;;;;;23.05;27.77;100928.88;5047252;27;97381;-68
2021/04/24 07:18:29;;;;;;;9.75;5.03;;;;;;;22.68;27.92;100928.09;5049915;27;101091;-67
2021/04/24 07:20:55;;;;;;;12.25;4.90;;;;;;;21.99;28.33;100933.16;5031269;27;102629;-68
2021/04/24 07:23:20;;;;;;;11.07;4.18;;;;;;;22.03;27.77;100921.28;5066957;27;96769;-68
2021/04/24 07:25:46;;;;;;;11.13;4.60;;;;;;;23.73;26.12;100921.78;5046532;27;97383;-67
2021/04/24 07:28:11;;;;;;;7.55;3.88;;;;;;;25.63;24.50;100915.78;5056762;27;97910;-68
2021/04/24 07:30:37;;;;;;;9.25;4.20;;;;;;;27.77;23.24;100913.94;5050280;27;101445;-71
2021/04/24 07:33:03;;;;;;;8.35;3.70;;;;;;;28.86;21.97;100908.53;5068549;27;96813;-68
2021/04/24 07:35:28;;;;;;;5.28;3.42;;;;;;;29.99;21.32;100903.94;5068685;27;96890;-69
2021/04/24 07:37:54;;;;;;;5.97;3.25;;;;;;;30.18;20.17;100903.66;5031618;27;102108;-69
2021/04/24 07:40:19;;;;;;;10.18;3.47;;;;;;;30.50;19.89;100902.03;5055853;27;100784;-69
2021/04/24 07:42:45;;;;;;;6.15;3.47;;;;;;;31.01;19.19;100910.88;5088783;27;97293;-71
2021/04/24 07:45:13;;;;;;;5.47;2.90;;;;;;;30.31;18.99;100913.19;5051689;27;97012;-70
2021/04/24 07:47:39;;;;;;;7.60;3.47;;;;;;;31.72;18.92;100917.31;5019367;27;101367;-74
2021/04/24 07:50:06;;;;;;;9.13;3.22;;;;;;;32.96;18.03;100910.09;5053908;27;101746;-72
2021/04/24 07:52:32;;;;;;;5.40;3.05;;;;;;;32.93;17.90;100910.47;5047075;27;97180;-71
2021/04/24 07:54:57;;;;;;;6.07;2.45;;;;;;;33.96;16.35;100912.41;5055795;27;97162;-70
2021/04/24 07:57:23;;;;;;;6.00;2.90;;;;;;;34.47;16.05;100916.94;5054178;27;97881;-70
2021/04/24 07:59:49;;;;;;;5.35;2.83;;;;;;;34.79;16.17;100912.03;5060322;27;101129;-71
2021/04/24 08:02:14;;;;;;;3.08;2.50;;;;;;;35.23;15.15;100902.72;5072796;27;97194;-71
2021/04/24 08:04:41;;;;;;;3.47;2.53;;;;;;;34.54;15.57;100904.25;5069389;27;97977;-70
2021/04/24 08:07:09;;;;;;;4.88;2.13;;;;;;;34.87;14.63;100909.16;5066546;27;98194;-71
2021/04/24 08:09:35;;;;;;;4.88;2.53;;;;;;;34.75;14.17;100910.75;5037063;27;100970;-71
2021/04/24 08:12:01;;;;;;;3.42;2.13;;;;;;;35.61;13.77;100911.41;5029194;27;96749;-70
2021/04/24 08:14:26;;;;;;;8.93;4.05;;;;;;;35.76;13.83;100911.25;5057337;27;96802;-70
2021/04/24 08:16:52;;;;;;;7.75;2.80;;;;;;;36.01;14.27;100906.94;5055723;27;97749;-71
2021/04/24 08:19:18;;;;;;;6.53;2.40;;;;;;;36.02;13.73;100905.03;5039834;27;97508;-70
2021/04/24 08:21:44;;;;;;;3.22;2.20;;;;;;;36.32;13.83;100896.53;5039299;27;96770;-71
2021/04/24 08:24:11;;;;;;;6.60;2.95;;;;;;;36.80;13.88;100897.22;5057377;27;96812;-71
2021/04/24 08:26:36;;;;;;;5.43;3.00;;;;;;;37.12;13.70;100884.59;5038973;27;101700;-74
2021/04/24 08:29:06;;;;;;;5.57;2.80;;;;;;;37.75;13.26;100888.63;5039520;27;97776;-71
2021/04/24 08:31:32;;;;;;;6.13;2.88;;;;;;;37.94;13.19;100892.38;5023481;27;97597;-71
2021/04/24 08:33:57;;;;;;;3.35;2.50;;;;;;;37.94;13.52;100890.47;5039282;27;97551;-70
2021/04/24 08:36:23;;;;;;;4.35;2.88;;;;;;;38.27;12.89;100890.25;5038776;27;101277;-70
2021/04/24 08:38:48;;;;;;;8.15;3.00;;;;;;;37.32;13.50;100881.81;5054943;27;97926;-70
2021/04/24 08:41:14;;;;;;;6.03;2.90;;;;;;;37.26;12.85;100879.91;5057168;27;97088;-70
2021/04/24 08:43:40;;;;;;;5.18;3.05;;;;;;;36.91;13.07;100882.06;5040105;27;97061;-73
2021/04/24 08:46:06;;;;;;;5.53;2.80;;;;;;;37.52;13.11;100878.19;5059204;27;99771;-71
2021/04/24 08:48:33;;;;;;;5.45;2.80;;;;;;;37.61;13.00;100876.88;5048202;27;101079;-71
2021/04/24 08:50:59;;;;;;;4.53;2.53;;;;;;;37.83;13.33;100874.69;5036447;27;97292;-70
2021/04/24 08:53:27;;;;;;;8.57;2.92;;;;;;;38.11;12.91;100879.84;5057643;27;96966;-70
2021/04/24 08:55:52;;;;;;;4.90;2.63;;;;;;;37.60;13.10;100875.22;5072861;27;98579;-69
2021/04/24 08:58:19;;;;;;;7.32;2.65;;;;;;;38.02;13.03;100876.50;5056159;27;100947;-69
2021/04/24 09:00:47;;;;;;;4.22;2.42;;;;;;;37.82;12.89;100879.31;5073459;27;96730;-69
2021/04/24 09:03:16;;;;;;;3.15;2.15;;;;;;;37.80;13.27;100875.97;5036772;27;97416;-70
2021/04/24 09:05:42;;;;;;;;;;;;;;;37.39;13.19;100871.69;5050145;27;100924;-72
2021/04/24 09:08:09;;;;;;;7.10;3.10;;;;;;;37.05;13.05;100863.75;5036620;27;100928;-69
2021/04/24 09:10:42;;;;;;;5.75;4.28;;;;;;;36.77;12.97;100863.97;5053453;27;97314;-70
2021/04/24 09:13:08;;;;;;;6.65;3.60;;;;;;;35.74;13.75;100865.03;5054268;27;96851;-70
2021/04/24 09:15:35;;;;;;;6.53;3.03;;;;;;;35.23;14.24;100865.41;5035940;27;98455;-71
2021/04/24 09:18:03;;;;;;;3.20;2.50;;;;;;;33.98;14.77;100864.03;5036013;27;98058;-72
2021/04/24 09:20:54;;;;;;;9.32;2.70;;;;;;;33.31;14.99;100864.22;5036519;27;97286;-71
2021/04/24 09:23:28;;;;;;;4.22;2.40;;;;;;;31.84;16.13;100860.78;5035653;27;97060;-71
2021/04/24 09:26:03;;;;;;;5.45;2.65;;;;;;;30.26;16.51;100858.72;5051905;27;98009;-71
2021/04/24 09:28:35;;;;;;;5.03;2.30;;;;;;;29.28;17.53;100865.41;5053505;27;97404;-72
2021/04/24 09:31:15;;;;;;;6.00;2.45;;;;;;;28.20;18.66;100862.00;5036330;27;97346;-72
2021/04/24 09:33:41;;;;;;;7.28;2.38;;;;;;;28.14;18.82;100861.78;5035575;27;97431;-74
2021/04/24 09:36:08;;;;;;;5.07;2.28;;;;;;;27.67;18.46;100857.34;5052967;27;98526;-70
2021/04/24 09:38:39;;;;;;;6.38;2.60;;;;;;;27.18;18.61;100853.19;5052671;27;98459;-69
2021/04/24 09:41:11;;;;;;;5.65;2.80;;;;;;;26.47;20.02;100854.38;5034035;27;97136;-69
2021/04/24 09:44:00;;;;;;;5.82;3.25;;;;;;;25.58;20.20;100856.19;5026647;27;97370;-70
2021/04/24 09:46:49;;;;;;;4.40;2.45;;;;;;;25.38;20.80;100853.44;5019369;27;101086;-69
2021/04/24 09:49:24;;;;;;;7.78;3.00;;;;;;;23.85;21.29;100853.81;5055925;27;97959;-69
2021/04/24 09:51:59;;;;;;;5.75;3.00;;;;;;;24.13;21.56;100857.72;5062620;27;97183;-68
2021/04/24 09:54:47;;;;;;;7.03;3.28;;;;;;;23.71;22.23;100862.13;5044841;27;97484;-70
2021/04/24 09:57:20;;;;;;;11.40;3.40;;;;;;;23.71;22.51;100856.75;5039188;27;101870;-69
2021/04/24 09:59:56;;;;;;;7.95;2.97;;;;;;;23.60;23.93;100854.91;5038767;27;99610;-70
2021/04/24 10:02:32;;;;;;;7.80;2.80;;;;;;;23.49;23.50;100854.91;5047696;27;97201;-71
2021/04/24 10:05:12;;;;;;;9.25;3.92;;;;;;;23.26;23.06;100852.22;5064059;27;97267;-72
2021/04/24 10:07:39;;;;;;;8.05;3.95;;;;;;;23.02;23.14;100846.13;5049457;27;101514;-71
2021/04/24 10:10:11;;;;;;;8.02;3.53;;;;;;;22.82;23.59;100850.31;5031467;27;101977;-71
2021/04/24 10:12:40;;;;;;;5.90;2.90;;;;;;;22.47;23.67;100851.19;5052164;27;97514;-68
2021/04/24 10:15:07;;;;;;;6.72;4.00;;;;;;;21.95;23.93;100854.16;5036704;27;96920;-69
2021/04/24 10:17:33;;;;;;;7.28;4.10;;;;;;;21.78;24.24;100842.03;5070770;27;101491;-69
2021/04/24 10:20:01;;;;;;;11.73;2.92;;;;;;;21.51;25.03;100843.06;5050197;27;101734;-69
2021/04/24 10:22:27;;;;;;;13.88;2.95;;;;;;;21.28;25.53;100844.66;5065174;27;97311;-70
2021/04/24 10:24:53;;;;;;;7.80;3.60;;;;;;;20.98;25.61;100834.34;5048629;27;98051;-69
2021/04/24 10:27:21;;;;;;;10.95;3.08;;;;;;;21.12;25.37;100834.22;5052371;27;101193;-69
2021/04/24 10:29:49;;;;;;;6.78;3.30;;;;;;;20.94;25.92;100831.03;5028815;27;99318;-70
2021/04/24 10:32:14;;;;;;;7.93;3.17;;;;;;;21.31;26.17;100823.09;5047391;27;98211;-71
2021/04/24 10:34:40;;;;;;;8.98;3.00;;;;;;;20.83;26.39;100825.59;5068195;27;97069;-73
2021/04/24 10:37:07;;;;;;;5.00;2.78;;;;;;;20.90;25.90;100823.34;5068776;27;98640;-72
2021/04/24 10:39:35;;;;;;;5.30;3.33;;;;;;;20.73;24.95;100819.16;5048152;27;98082;-70
2021/04/24 10:42:03;;;;;;;7.93;3.92;;;;;;;20.26;25.85;100821.38;5036986;27;97200;-71
2021/04/24 10:44:51;;;;;;;11.52;3.78;;;;;;;20.13;25.94;100815.19;5064307;27;97198;-71
2021/04/24 10:50:19;;;;;;;9.82;3.97;;;;;;;19.88;26.92;100823.91;5081888;27;98204;-71
2021/04/24 10:52:45;;;;;;;5.82;3.30;;;;;;;19.95;27.43;100809.22;5070725;27;97407;-72
2021/04/24 10:55:27;;;;;;;6.68;3.70;;;;;;;19.88;27.47;100815.91;5074853;27;97362;-71
2021/04/24 10:57:54;;;;;;;5.63;2.95;;;;;;;19.76;27.87;100809.56;5037326;27;101326;-71
2021/04/24 11:00:29;;;;;;;8.00;3.33;;;;;;;19.94;27.75;100804.00;5051284;27;98642;-72
2021/04/24 11:02:57;;;;;;;6.60;3.60;;;;;;;19.95;27.72;100813.69;5067961;27;97386;-71
2021/04/24 11:05:31;;;;;;;8.45;3.63;;;;;;;19.64;27.92;100818.34;5054807;27;97135;-72
2021/04/24 11:08:19;;;;;;;8.75;3.78;;;;;;;19.33;28.15;100817.59;5072674;27;98579;-71
2021/04/24 11:10:56;;;;;;;13.52;3.50;;;;;;;19.32;27.51;100815.06;5053613;27;101018;-72
2021/04/24 11:13:22;;;;;;;11.82;3.72;;;;;;;19.06;28.54;100816.66;5037806;27;97181;-71
2021/04/24 11:15:48;;;;;;;10.32;3.90;;;;;;;19.19;29.43;100805.16;5057095;27;97191;-71
2021/04/24 11:18:15;;;;;;;8.50;3.40;;;;;;;19.15;30.37;100808.13;5046505;27;101735;-71
2021/04/24 11:20:49;;;;;;;11.07;3.70;;;;;;;19.31;30.38;100811.50;5045406;27;101734;-71
2021/04/24 11:23:29;;;;;;;9.27;3.92;;;;;;;19.13;29.75;100802.03;5063108;27;97258;-71
2021/04/24 11:25:59;;;;;;;10.48;4.40;;;;;;;19.22;29.87;100801.44;5065300;27;96973;-70